Flingsville, Kentucky
Current Conditions -  °F | °C
As of 3:52 PM on Saturday 25 Oct 2014 (Local Time) from KCVG Reporting Station
Few Clouds Few Clouds  
Wind Chill: 74°   Ceiling: Unl
Heat Index: 74°   Visibility: 10mi
Dew Point: 55°   Wind: 12mph
Humidity: 52%   Direction: 250°WSW
Pressure: 29.92"   Gusts: NA
Location:  38.7783°N, 84.6037°W
Report Text: KCVG 251952Z 25010KT 10SM FEW250 23/13 A2992 RMK AO2 SLP126 T02330128
Loading
Personal Weather Stations






























Interactive Weather Map
Tropical Storm Tracking
New forecast layout! Learn more

10-Day Weather Forecast

Advertisements
Track Severe Weather on mobile